Time;durP1;ratioP1;P1;durP2;ratioP2;P2;SDS_P1;SDS_P2;PMS_P1;PMS_P2;Temp;Humidity;BMP_temperature;BMP_pressure;BME280_temperature;BME280_humidity;BME280_pressure;Samples;Min_cycle;Max_cycle;Signal;HPM_P1;HPM_P2
2021/09/02 00:01:01;;;;;;;9.30;6.07;;;;;;;;;;5054232;28;20405;-64
2021/09/02 00:03:27;;;;;;;11.63;7.40;;;;;;;;;;5050462;28;20935;-64
2021/09/02 00:05:53;;;;;;;10.57;7.00;;;;;;;;;;5053770;28;20398;-65
2021/09/02 00:08:19;;;;;;;11.17;7.70;;;;;;;;;;5052820;28;21024;-64
2021/09/02 00:10:45;;;;;;;10.50;8.03;;;;;;;;;;5053836;28;20456;-65
2021/09/02 00:13:11;;;;;;;10.13;7.30;;;;;;;;;;5052779;28;20816;-65
2021/09/02 00:15:37;;;;;;;12.53;7.67;;;;;;;;;;5053992;28;20452;-65
2021/09/02 00:18:03;;;;;;;11.30;7.30;;;;;;;;;;5052675;28;20456;-64
2021/09/02 00:20:30;;;;;;;9.47;6.70;;;;;;;;;;5053670;28;20831;-65
2021/09/02 00:22:56;;;;;;;9.87;7.87;;;;;;;;;;5052623;28;20449;-64
2021/09/02 00:25:22;;;;;;;12.97;8.03;;;;;;;;;;5053659;28;20402;-65
2021/09/02 00:27:49;;;;;;;12.60;7.03;;;;;;;;;;5052478;28;20457;-64
2021/09/02 00:30:15;;;;;;;10.50;7.33;;;;;;;;;;5053530;28;20425;-65
2021/09/02 00:32:41;;;;;;;11.30;6.70;;;;;;;;;;5052573;28;20445;-64
2021/09/02 00:35:07;;;;;;;10.00;7.47;;;;;;;;;;5053439;28;20436;-65
2021/09/02 00:37:33;;;;;;;9.27;7.00;;;;;;;;;;5051389;28;20418;-70
2021/09/02 00:39:59;;;;;;;10.07;7.37;;;;;;;;;;5053380;28;20402;-65
2021/09/02 00:42:25;;;;;;;7.80;6.50;;;;;;;;;;5052436;28;20964;-64
2021/09/02 00:44:51;;;;;;;10.33;7.37;;;;;;;;;;5053467;28;20398;-65
2021/09/02 00:47:18;;;;;;;8.27;6.10;;;;;;;;;;5052331;28;20461;-64
2021/09/02 00:49:45;;;;;;;9.07;6.80;;;;;;;;;;5053278;28;20494;-65
2021/09/02 00:52:13;;;;;;;9.47;7.40;;;;;;;;;;5051452;28;20453;-64
2021/09/02 00:54:41;;;;;;;13.30;8.23;;;;;;;;;;5053350;28;20428;-65
2021/09/02 00:57:08;;;;;;;9.97;7.50;;;;;;;;;;5034425;28;20907;-64
2021/09/02 00:59:34;;;;;;;10.70;8.30;;;;;;;;;;5053454;28;20402;-65
2021/09/02 01:02:00;;;;;;;13.67;8.60;;;;;;;;;;5053081;28;20930;-65
2021/09/02 01:04:26;;;;;;;10.13;7.97;;;;;;;;;;5052644;28;20508;-64
2021/09/02 01:06:53;;;;;;;20.70;8.90;;;;;;;;;;5053611;28;20549;-64
2021/09/02 01:09:19;;;;;;;10.40;7.50;;;;;;;;;;5037399;28;20469;-64
2021/09/02 01:11:45;;;;;;;13.07;7.57;;;;;;;;;;5035401;28;20442;-64
2021/09/02 01:14:17;;;;;;;9.63;7.40;;;;;;;;;;5048511;28;20422;-64
2021/09/02 01:16:47;;;;;;;14.40;8.00;;;;;;;;;;5053075;28;20406;-65
2021/09/02 01:19:14;;;;;;;10.60;7.47;;;;;;;;;;5052108;28;20475;-65
2021/09/02 01:21:40;;;;;;;12.60;8.53;;;;;;;;;;5052982;28;20426;-64
2021/09/02 01:24:06;;;;;;;9.43;7.17;;;;;;;;;;5052010;28;20793;-65
2021/09/02 01:26:32;;;;;;;9.67;7.30;;;;;;;;;;5052905;28;20446;-65
2021/09/02 01:28:58;;;;;;;9.33;6.83;;;;;;;;;;5051810;28;20433;-64
2021/09/02 01:31:24;;;;;;;11.17;7.30;;;;;;;;;;5034750;28;20438;-65
2021/09/02 01:33:50;;;;;;;10.97;7.40;;;;;;;;;;5051968;28;20425;-64
2021/09/02 01:36:16;;;;;;;8.87;7.07;;;;;;;;;;5052994;28;20406;-65
2021/09/02 01:38:42;;;;;;;11.60;8.00;;;;;;;;;;5051741;28;20454;-64
2021/09/02 01:41:08;;;;;;;12.33;7.30;;;;;;;;;;5052613;28;20492;-65
2021/09/02 01:43:34;;;;;;;11.47;8.60;;;;;;;;;;5046338;28;20427;-65
2021/09/02 01:46:00;;;;;;;8.23;7.30;;;;;;;;;;5032772;28;20543;-64
2021/09/02 01:48:27;;;;;;;9.07;7.43;;;;;;;;;;5046904;28;20424;-64
2021/09/02 01:50:53;;;;;;;8.80;6.70;;;;;;;;;;5052622;28;20386;-66
2021/09/02 01:53:19;;;;;;;8.87;7.33;;;;;;;;;;5051571;28;20527;-64
2021/09/02 01:55:48;;;;;;;9.57;7.70;;;;;;;;;;5052739;28;20875;-65
2021/09/02 01:58:14;;;;;;;9.13;7.37;;;;;;;;;;5051734;28;21030;-64
2021/09/02 02:00:41;;;;;;;11.27;7.80;;;;;;;;;;5034517;28;20418;-64
2021/09/02 02:03:07;;;;;;;12.00;8.20;;;;;;;;;;5044971;28;20469;-64
2021/09/02 02:05:34;;;;;;;8.70;6.33;;;;;;;;;;5036516;28;20445;-64
2021/09/02 02:08:01;;;;;;;10.53;7.57;;;;;;;;;;5036345;28;20446;-64
2021/09/02 02:10:27;;;;;;;10.77;6.70;;;;;;;;;;5052072;28;20422;-64
2021/09/02 02:12:54;;;;;;;10.90;7.80;;;;;;;;;;5056340;28;20521;-65
2021/09/02 02:15:20;;;;;;;12.63;8.50;;;;;;;;;;5036535;28;20920;-64
2021/09/02 02:17:46;;;;;;;9.33;6.80;;;;;;;;;;5035985;28;20403;-65
2021/09/02 02:20:13;;;;;;;9.10;6.97;;;;;;;;;;5052702;28;20429;-64
2021/09/02 02:22:39;;;;;;;11.47;7.40;;;;;;;;;;5054858;28;20488;-64
2021/09/02 02:25:06;;;;;;;9.07;7.00;;;;;;;;;;5055062;28;20425;-64
2021/09/02 02:27:32;;;;;;;11.53;6.97;;;;;;;;;;5056027;28;20453;-65
2021/09/02 02:29:58;;;;;;;9.00;6.90;;;;;;;;;;5055031;28;20418;-65
2021/09/02 02:32:25;;;;;;;10.40;7.70;;;;;;;;;;5055761;28;20934;-65
2021/09/02 02:34:51;;;;;;;11.73;6.90;;;;;;;;;;5050262;28;20509;-64
2021/09/02 02:37:17;;;;;;;12.83;8.73;;;;;;;;;;5055609;28;20403;-65
2021/09/02 02:39:44;;;;;;;12.20;7.60;;;;;;;;;;5054823;28;20425;-64
2021/09/02 02:42:10;;;;;;;9.70;7.50;;;;;;;;;;5050886;28;20453;-65
2021/09/02 02:44:37;;;;;;;10.67;7.10;;;;;;;;;;5054100;28;20461;-64
2021/09/02 02:47:03;;;;;;;11.70;8.50;;;;;;;;;;5054341;28;20441;-64
2021/09/02 02:49:29;;;;;;;12.60;9.47;;;;;;;;;;5052899;28;20426;-64
2021/09/02 02:51:55;;;;;;;11.97;7.50;;;;;;;;;;5055238;28;20532;-65
2021/09/02 02:54:21;;;;;;;11.30;8.53;;;;;;;;;;5043463;28;20458;-65
2021/09/02 02:56:47;;;;;;;12.90;9.33;;;;;;;;;;5035611;28;20406;-64
2021/09/02 02:59:13;;;;;;;10.13;8.53;;;;;;;;;;5042899;28;20426;-64
2021/09/02 03:01:39;;;;;;;11.17;8.07;;;;;;;;;;5055119;28;20516;-65
2021/09/02 03:04:05;;;;;;;12.57;8.47;;;;;;;;;;5054176;28;20942;-65
2021/09/02 03:06:31;;;;;;;12.20;7.90;;;;;;;;;;5054984;28;20504;-64
2021/09/02 03:08:59;;;;;;;11.43;8.43;;;;;;;;;;5053836;28;20429;-64
2021/09/02 03:11:25;;;;;;;11.93;8.50;;;;;;;;;;5054873;28;20426;-64
2021/09/02 03:13:52;;;;;;;12.03;7.60;;;;;;;;;;5049578;28;20497;-64
2021/09/02 03:16:18;;;;;;;11.20;8.53;;;;;;;;;;5035264;28;20411;-64
2021/09/02 03:18:44;;;;;;;11.00;7.87;;;;;;;;;;5046828;28;20438;-64
2021/09/02 03:21:11;;;;;;;11.47;7.77;;;;;;;;;;5054747;28;20403;-64
2021/09/02 03:23:37;;;;;;;12.80;8.60;;;;;;;;;;5053952;28;20812;-64
2021/09/02 03:26:03;;;;;;;11.10;7.73;;;;;;;;;;5054856;28;20458;-65
2021/09/02 03:28:29;;;;;;;11.90;7.70;;;;;;;;;;5046179;28;20520;-64
2021/09/02 03:30:55;;;;;;;15.67;9.43;;;;;;;;;;5041437;28;20407;-65
2021/09/02 03:33:21;;;;;;;13.00;10.03;;;;;;;;;;5035179;28;20930;-64
2021/09/02 03:35:47;;;;;;;14.83;9.33;;;;;;;;;;5053293;28;20426;-64
2021/09/02 03:38:13;;;;;;;16.33;10.03;;;;;;;;;;5054828;28;20402;-65
2021/09/02 03:40:39;;;;;;;16.10;10.43;;;;;;;;;;5053456;28;20433;-65
2021/09/02 03:43:05;;;;;;;17.30;9.03;;;;;;;;;;5054360;28;20476;-65
2021/09/02 03:45:31;;;;;;;16.30;8.83;;;;;;;;;;5053655;28;20426;-64
2021/09/02 03:47:57;;;;;;;11.90;7.97;;;;;;;;;;5054278;28;20856;-65
2021/09/02 03:50:23;;;;;;;12.67;9.00;;;;;;;;;;5053288;28;20462;-64
2021/09/02 03:52:49;;;;;;;14.27;9.00;;;;;;;;;;5053131;28;20466;-64
2021/09/02 03:55:15;;;;;;;11.03;8.10;;;;;;;;;;5053320;28;20430;-64
2021/09/02 03:57:41;;;;;;;12.90;8.47;;;;;;;;;;5055366;28;20399;-65
2021/09/02 04:00:09;;;;;;;11.93;8.20;;;;;;;;;;5053674;28;20936;-64
2021/09/02 04:02:35;;;;;;;13.20;8.80;;;;;;;;;;5053044;28;20452;-64
2021/09/02 04:05:01;;;;;;;13.30;8.17;;;;;;;;;;5053289;28;20426;-64
2021/09/02 04:07:27;;;;;;;12.47;8.70;;;;;;;;;;5054068;28;20491;-65
2021/09/02 04:09:53;;;;;;;10.87;8.30;;;;;;;;;;5051465;28;20425;-64
2021/09/02 04:12:19;;;;;;;12.80;9.40;;;;;;;;;;5053701;28;20971;-64
2021/09/02 04:14:45;;;;;;;13.77;9.30;;;;;;;;;;5052894;28;20787;-64
2021/09/02 04:17:11;;;;;;;16.77;9.57;;;;;;;;;;5053735;28;20467;-65
2021/09/02 04:19:37;;;;;;;13.93;9.53;;;;;;;;;;5053115;28;20422;-64
2021/09/02 04:22:04;;;;;;;17.33;10.37;;;;;;;;;;5053753;28;20448;-65
2021/09/02 04:24:30;;;;;;;15.73;11.07;;;;;;;;;;5034957;28;20426;-64
2021/09/02 04:26:56;;;;;;;16.60;10.07;;;;;;;;;;5053604;28;20456;-65
2021/09/02 04:29:22;;;;;;;13.27;10.30;;;;;;;;;;5044743;28;20518;-64
2021/09/02 04:31:48;;;;;;;12.73;8.77;;;;;;;;;;5034070;28;20961;-65
2021/09/02 04:34:14;;;;;;;15.43;9.77;;;;;;;;;;5040403;28;20421;-64
2021/09/02 04:36:40;;;;;;;13.17;10.33;;;;;;;;;;5053370;28;20402;-65
2021/09/02 04:39:06;;;;;;;13.43;9.90;;;;;;;;;;5052177;28;20437;-64
2021/09/02 04:41:33;;;;;;;16.80;9.83;;;;;;;;;;5053483;28;20453;-65
2021/09/02 04:43:59;;;;;;;14.30;10.30;;;;;;;;;;5052253;28;20425;-64
2021/09/02 04:46:26;;;;;;;13.27;9.60;;;;;;;;;;5053703;28;20449;-65
2021/09/02 04:48:52;;;;;;;18.53;10.50;;;;;;;;;;5052334;28;20413;-64
2021/09/02 04:51:18;;;;;;;12.40;9.07;;;;;;;;;;5053285;28;20433;-65
2021/09/02 04:53:44;;;;;;;13.57;10.43;;;;;;;;;;5052500;28;20432;-64
2021/09/02 04:56:11;;;;;;;14.47;9.03;;;;;;;;;;5053337;28;20452;-64
2021/09/02 04:58:37;;;;;;;17.37;11.83;;;;;;;;;;5052477;28;20883;-64
2021/09/02 05:01:03;;;;;;;37.87;27.07;;;;;;;;;;5053002;28;20413;-65
2021/09/02 05:03:29;;;;;;;19.37;13.10;;;;;;;;;;5052465;28;20398;-64
2021/09/02 05:05:55;;;;;;;17.43;12.40;;;;;;;;;;5033330;28;20422;-65
2021/09/02 05:08:22;;;;;;;14.20;11.23;;;;;;;;;;5033144;28;20422;-64
2021/09/02 05:10:48;;;;;;;17.03;11.17;;;;;;;;;;5051356;28;20791;-64
2021/09/02 05:13:14;;;;;;;16.67;11.77;;;;;;;;;;5053015;28;20413;-65
2021/09/02 05:15:40;;;;;;;20.90;13.00;;;;;;;;;;5051181;28;20417;-64
2021/09/02 05:18:06;;;;;;;20.00;12.43;;;;;;;;;;5053088;28;20879;-65
2021/09/02 05:20:32;;;;;;;20.33;13.10;;;;;;;;;;5051838;28;20509;-64
2021/09/02 05:22:58;;;;;;;24.83;14.30;;;;;;;;;;5053070;28;20432;-65
2021/09/02 05:25:25;;;;;;;19.20;12.70;;;;;;;;;;5051762;28;20430;-64
2021/09/02 05:27:51;;;;;;;21.50;13.20;;;;;;;;;;5053032;28;20547;-64
2021/09/02 05:30:17;;;;;;;17.00;11.77;;;;;;;;;;5051969;28;20799;-64
2021/09/02 05:32:43;;;;;;;18.13;13.23;;;;;;;;;;5052905;28;20442;-65
2021/09/02 05:35:10;;;;;;;19.47;15.17;;;;;;;;;;5051899;28;20863;-64
2021/09/02 05:37:36;;;;;;;23.10;14.67;;;;;;;;;;5054094;28;20413;-64
2021/09/02 05:40:03;;;;;;;24.53;17.20;;;;;;;;;;5054723;28;20429;-65
2021/09/02 05:42:29;;;;;;;18.23;12.73;;;;;;;;;;5051121;28;20862;-64
2021/09/02 05:44:55;;;;;;;20.57;13.43;;;;;;;;;;5046014;28;20430;-64
2021/09/02 05:47:21;;;;;;;17.10;12.50;;;;;;;;;;5036627;28;20442;-65
2021/09/02 05:49:47;;;;;;;18.23;11.50;;;;;;;;;;5045078;28;20839;-64
2021/09/02 05:52:13;;;;;;;18.67;11.70;;;;;;;;;;5057508;28;20445;-64
2021/09/02 05:54:39;;;;;;;16.60;11.70;;;;;;;;;;5056069;28;20479;-65
2021/09/02 05:57:05;;;;;;;11.83;9.70;;;;;;;;;;5057102;28;20891;-64
2021/09/02 05:59:32;;;;;;;13.73;10.63;;;;;;;;;;5055892;28;20426;-64
2021/09/02 06:01:58;;;;;;;14.60;10.37;;;;;;;;;;5056902;28;21036;-64
2021/09/02 06:04:24;;;;;;;14.90;9.80;;;;;;;;;;5050693;28;20430;-65
2021/09/02 06:06:50;;;;;;;20.00;11.03;;;;;;;;;;5036401;28;20450;-64
2021/09/02 06:09:16;;;;;;;14.03;10.00;;;;;;;;;;5038840;28;20417;-66
2021/09/02 06:11:42;;;;;;;11.57;9.33;;;;;;;;;;5041646;28;20450;-65
2021/09/02 06:14:08;;;;;;;12.93;9.50;;;;;;;;;;5038020;28;20413;-66
2021/09/02 06:16:34;;;;;;;15.00;9.67;;;;;;;;;;5056130;28;20405;-65
2021/09/02 06:19:00;;;;;;;16.57;10.27;;;;;;;;;;5055316;28;20425;-66
2021/09/02 06:21:26;;;;;;;12.70;9.33;;;;;;;;;;5053779;28;20537;-65
2021/09/02 06:23:52;;;;;;;11.30;8.53;;;;;;;;;;5055070;28;20405;-66
2021/09/02 06:26:18;;;;;;;20.60;9.60;;;;;;;;;;5055378;28;20532;-65
2021/09/02 06:28:44;;;;;;;12.50;9.23;;;;;;;;;;5056238;28;20444;-65
2021/09/02 06:31:10;;;;;;;12.70;9.30;;;;;;;;;;5054222;28;20434;-66
2021/09/02 06:33:38;;;;;;;12.97;9.67;;;;;;;;;;5055816;28;20447;-65
2021/09/02 06:36:04;;;;;;;15.00;9.60;;;;;;;;;;5053830;28;20422;-65
2021/09/02 06:38:30;;;;;;;11.63;8.80;;;;;;;;;;5055862;28;20397;-66
2021/09/02 06:40:56;;;;;;;11.60;8.07;;;;;;;;;;5054598;28;20483;-65
2021/09/02 06:43:23;;;;;;;15.20;10.33;;;;;;;;;;5035687;28;20410;-66
2021/09/02 06:45:49;;;;;;;9.23;7.50;;;;;;;;;;5049954;28;20543;-66
2021/09/02 06:48:15;;;;;;;16.07;11.33;;;;;;;;;;5050731;28;21064;-66
2021/09/02 06:50:41;;;;;;;14.80;10.73;;;;;;;;;;5053514;28;20418;-65
2021/09/02 06:53:07;;;;;;;10.50;7.53;;;;;;;;;;5054312;28;20453;-65
2021/09/02 06:55:33;;;;;;;14.10;8.23;;;;;;;;;;5051933;28;20471;-66
2021/09/02 06:57:59;;;;;;;11.03;8.27;;;;;;;;;;5055105;28;20753;-66
2021/09/02 07:00:25;;;;;;;13.33;8.10;;;;;;;;;;5047775;28;20429;-66
2021/09/02 07:02:51;;;;;;;11.40;8.27;;;;;;;;;;5053411;28;20430;-65
2021/09/02 07:05:18;;;;;;;11.13;7.80;;;;;;;;;;5052857;28;20436;-65
2021/09/02 07:07:44;;;;;;;12.60;8.87;;;;;;;;;;5051521;28;20438;-67
2021/09/02 07:10:11;;;;;;;8.50;6.50;;;;;;;;;;5036145;28;20422;-67
2021/09/02 07:12:37;;;;;;;11.67;8.30;;;;;;;;;;5032284;28;20446;-66
2021/09/02 07:15:03;;;;;;;8.90;7.10;;;;;;;;;;5051004;28;20417;-66
2021/09/02 07:17:29;;;;;;;8.30;6.70;;;;;;;;;;5050752;28;20844;-66
2021/09/02 07:19:57;;;;;;;16.70;6.97;;;;;;;;;;5049103;28;20413;-66
2021/09/02 07:22:23;;;;;;;10.13;7.03;;;;;;;;;;5047589;28;20958;-66
2021/09/02 07:24:49;;;;;;;7.63;5.90;;;;;;;;;;5052181;28;20428;-65
2021/09/02 07:27:15;;;;;;;8.30;6.23;;;;;;;;;;5047294;28;20477;-66
2021/09/02 07:29:41;;;;;;;9.53;6.47;;;;;;;;;;5048949;28;20452;-67
2021/09/02 07:32:07;;;;;;;8.17;5.93;;;;;;;;;;5049819;28;20470;-66
2021/09/02 07:34:33;;;;;;;6.47;5.23;;;;;;;;;;5051845;28;20505;-66
2021/09/02 07:37:01;;;;;;;8.73;5.27;;;;;;;;;;5050511;28;20513;-66
2021/09/02 07:39:27;;;;;;;9.93;6.77;;;;;;;;;;5051668;28;20422;-66
2021/09/02 07:41:53;;;;;;;12.23;6.20;;;;;;;;;;5051711;28;20457;-66
2021/09/02 07:44:19;;;;;;;8.10;5.10;;;;;;;;;;5052876;28;20418;-65
2021/09/02 07:46:45;;;;;;;8.73;6.13;;;;;;;;;;5048442;28;20472;-66
2021/09/02 07:49:11;;;;;;;9.50;6.03;;;;;;;;;;5052024;28;20421;-65
2021/09/02 07:51:37;;;;;;;9.33;5.50;;;;;;;;;;5051974;28;20516;-66
2021/09/02 07:54:03;;;;;;;7.63;5.10;;;;;;;;;;5052666;28;20887;-66
2021/09/02 07:56:29;;;;;;;5.87;4.53;;;;;;;;;;5052004;28;20770;-67
2021/09/02 07:58:56;;;;;;;7.53;5.77;;;;;;;;;;5050156;28;20901;-67
2021/09/02 08:01:24;;;;;;;7.80;5.33;;;;;;;;;;5047873;28;20453;-66
2021/09/02 08:03:50;;;;;;;10.87;5.77;;;;;;;;;;5052182;28;20775;-65
2021/09/02 08:06:17;;;;;;;6.90;5.67;;;;;;;;;;5050198;28;20450;-65
2021/09/02 08:08:43;;;;;;;10.53;5.30;;;;;;;;;;5050651;28;20855;-65
2021/09/02 08:11:09;;;;;;;5.40;4.17;;;;;;;;;;5049632;28;20544;-66
2021/09/02 08:13:35;;;;;;;5.97;4.60;;;;;;;;;;5045073;28;20795;-65
2021/09/02 08:16:01;;;;;;;7.20;4.93;;;;;;;;;;5049162;28;20452;-65
2021/09/02 08:18:27;;;;;;;10.70;5.33;;;;;;;;;;5050700;28;20416;-66
2021/09/02 08:20:53;;;;;;;6.43;3.70;;;;;;;;;;5048285;28;20465;-67
2021/09/02 08:23:21;;;;;;;5.77;4.57;;;;;;;;;;5049400;28;20844;-66
2021/09/02 08:25:47;;;;;;;7.17;4.60;;;;;;;;;;5050106;28;20410;-66
2021/09/02 08:28:15;;;;;;;4.63;4.07;;;;;;;;;;5049973;28;20453;-66
2021/09/02 08:30:41;;;;;;;6.20;3.73;;;;;;;;;;5050819;28;20497;-67
2021/09/02 08:33:07;;;;;;;5.47;3.93;;;;;;;;;;5047738;28;21046;-68
2021/09/02 08:35:34;;;;;;;6.40;5.00;;;;;;;;;;5047470;28;20414;-68
2021/09/02 08:38:01;;;;;;;6.27;4.50;;;;;;;;;;5049164;28;20429;-66
2021/09/02 08:40:29;;;;;;;7.43;4.80;;;;;;;;;;5051786;28;20523;-67
2021/09/02 08:42:56;;;;;;;7.90;4.77;;;;;;;;;;5050055;28;20552;-67
2021/09/02 08:45:23;;;;;;;5.30;3.87;;;;;;;;;;5050873;28;20763;-70
2021/09/02 08:47:50;;;;;;;6.40;4.40;;;;;;;;;;5049019;28;20450;-68
2021/09/02 08:50:17;;;;;;;7.47;3.93;;;;;;;;;;5049737;28;20429;-69
2021/09/02 08:52:44;;;;;;;7.13;4.53;;;;;;;;;;5046516;28;20553;-68
2021/09/02 08:55:10;;;;;;;8.07;4.27;;;;;;;;;;5047763;28;20429;-69
2021/09/02 08:57:36;;;;;;;6.43;4.40;;;;;;;;;;5045669;28;20429;-67
2021/09/02 09:00:03;;;;;;;5.57;3.90;;;;;;;;;;5045043;28;20413;-68
2021/09/02 09:02:30;;;;;;;7.30;4.13;;;;;;;;;;5049278;28;20441;-69
2021/09/02 09:05:10;;;;;;;7.03;4.50;;;;;;;;;;5047712;28;20437;-68
2021/09/02 09:07:40;;;;;;;6.53;4.27;;;;;;;;;;5049681;28;20816;-67
2021/09/02 09:10:11;;;;;;;11.83;5.50;;;;;;;;;;5044293;28;20504;-67
2021/09/02 09:12:39;;;;;;;4.27;3.80;;;;;;;;;;5047575;28;20445;-68
2021/09/02 09:15:06;;;;;;;5.63;4.20;;;;;;;;;;5042551;28;20426;-67
2021/09/02 09:17:33;;;;;;;5.83;3.97;;;;;;;;;;5050139;28;20432;-67
2021/09/02 09:19:59;;;;;;;7.50;4.60;;;;;;;;;;5050141;28;20918;-67
2021/09/02 09:22:28;;;;;;;6.17;4.30;;;;;;;;;;5048239;28;20441;-68
2021/09/02 09:24:58;;;;;;;6.97;4.00;;;;;;;;;;5049815;28;20428;-68
2021/09/02 09:27:26;;;;;;;6.10;4.10;;;;;;;;;;5049330;28;20474;-70
2021/09/02 09:30:04;;;;;;;6.87;4.53;;;;;;;;;;5050416;28;20497;-69
2021/09/02 09:32:36;;;;;;;6.00;4.23;;;;;;;;;;5043416;28;20441;-67
2021/09/02 09:35:02;;;;;;;5.80;4.27;;;;;;;;;;5050549;28;20413;-67
2021/09/02 09:37:28;;;;;;;6.33;4.27;;;;;;;;;;5047329;28;20580;-70
2021/09/02 09:40:07;;;;;;;7.57;5.43;;;;;;;;;;5050784;28;20504;-67
2021/09/02 09:42:33;;;;;;;4.93;3.77;;;;;;;;;;5047394;28;20453;-67
2021/09/02 09:44:59;;;;;;;5.70;4.00;;;;;;;;;;5041290;28;20441;-68
2021/09/02 09:47:27;;;;;;;5.83;4.50;;;;;;;;;;5047897;28;20556;-68
2021/09/02 09:49:53;;;;;;;10.77;4.50;;;;;;;;;;5046956;28;20918;-70
2021/09/02 09:52:28;;;;;;;5.57;3.90;;;;;;;;;;5047005;28;20476;-67
2021/09/02 09:54:59;;;;;;;8.10;5.43;;;;;;;;;;5050874;28;20413;-67
2021/09/02 09:57:27;;;;;;;7.60;4.37;;;;;;;;;;5048121;28;20504;-67
2021/09/02 09:59:54;;;;;;;6.60;4.10;;;;;;;;;;5046533;28;20442;-69
2021/09/02 10:02:21;;;;;;;7.40;4.23;;;;;;;;;;5046683;28;20443;-65
2021/09/02 10:04:47;;;;;;;6.57;4.30;;;;;;;;;;5049759;28;20417;-64
2021/09/02 10:07:16;;;;;;;7.87;4.17;;;;;;;;;;5050256;28;20453;-65
2021/09/02 10:09:43;;;;;;;6.40;3.80;;;;;;;;;;5050042;28;20502;-65
2021/09/02 10:12:11;;;;;;;6.50;3.47;;;;;;;;;;5048135;28;20476;-66
2021/09/02 10:14:37;;;;;;;5.13;3.90;;;;;;;;;;5049963;28;20793;-65
2021/09/02 10:17:03;;;;;;;6.17;3.87;;;;;;;;;;5048940;28;20422;-65
2021/09/02 10:19:32;;;;;;;6.53;3.87;;;;;;;;;;5047659;28;20434;-65
2021/09/02 10:21:58;;;;;;;7.97;3.77;;;;;;;;;;5049299;28;20453;-65
2021/09/02 10:24:39;;;;;;;5.17;3.80;;;;;;;;;;5051333;28;20429;-65
2021/09/02 10:27:23;;;;;;;4.77;3.60;;;;;;;;;;5052875;28;20464;-65
2021/09/02 10:29:49;;;;;;;6.33;4.23;;;;;;;;;;5052401;28;20543;-68
2021/09/02 10:32:26;;;;;;;7.37;4.13;;;;;;;;;;5034141;28;20940;-69
2021/09/02 10:35:12;;;;;;;6.37;3.57;;;;;;;;;;5054049;28;20735;-65
2021/09/02 10:37:43;;;;;;;6.20;4.23;;;;;;;;;;5051520;28;20960;-70
2021/09/02 10:40:29;;;;;;;12.50;4.53;;;;;;;;;;5047633;28;20421;-67
2021/09/02 10:42:56;;;;;;;6.73;4.00;;;;;;;;;;5037882;28;20449;-67
2021/09/02 10:45:26;;;;;;;7.23;4.10;;;;;;;;;;5050178;28;20453;-71
2021/09/02 10:47:53;;;;;;;6.30;4.50;;;;;;;;;;5049947;28;20512;-66
2021/09/02 10:50:21;;;;;;;5.27;4.30;;;;;;;;;;5055251;28;20408;-66
2021/09/02 10:52:47;;;;;;;5.63;3.87;;;;;;;;;;5048736;28;20462;-66
2021/09/02 10:55:26;;;;;;;13.80;8.30;;;;;;;;;;5051056;28;20502;-66
2021/09/02 10:57:52;;;;;;;5.50;4.00;;;;;;;;;;5049919;28;20441;-66
2021/09/02 11:00:37;;;;;;;8.67;4.30;;;;;;;;;;5049754;28;21074;-66
2021/09/02 11:03:15;;;;;;;6.07;3.80;;;;;;;;;;5042941;28;20540;-66
2021/09/02 11:05:42;;;;;;;8.60;3.40;;;;;;;;;;5051463;28;20798;-66
2021/09/02 11:08:09;;;;;;;7.63;3.93;;;;;;;;;;5051922;28;20464;-66
2021/09/02 11:10:35;;;;;;;6.13;3.67;;;;;;;;;;5052232;28;20505;-66
2021/09/02 11:13:06;;;;;;;8.00;3.57;;;;;;;;;;5051029;28;20457;-66
2021/09/02 11:15:35;;;;;;;5.33;3.70;;;;;;;;;;5052639;28;20457;-67
2021/09/02 11:18:02;;;;;;;5.67;3.50;;;;;;;;;;5049084;28;20923;-66
2021/09/02 11:20:29;;;;;;;6.23;4.03;;;;;;;;;;5052045;28;20838;-66
2021/09/02 11:23:12;;;;;;;5.53;3.97;;;;;;;;;;5051731;28;21021;-66
2021/09/02 11:25:39;;;;;;;6.37;3.37;;;;;;;;;;5052717;28;20422;-66
2021/09/02 11:28:05;;;;;;;5.27;3.70;;;;;;;;;;5049850;28;20876;-66
2021/09/02 11:30:33;;;;;;;6.23;4.13;;;;;;;;;;5050745;28;20782;-66
2021/09/02 11:33:01;;;;;;;6.23;3.90;;;;;;;;;;5051293;28;20456;-66
2021/09/02 11:35:27;;;;;;;7.07;4.70;;;;;;;;;;5046806;28;20441;-66
2021/09/02 11:37:53;;;;;;;5.07;4.07;;;;;;;;;;5048693;28;20767;-66
2021/09/02 11:40:22;;;;;;;5.93;3.93;;;;;;;;;;5051507;28;20424;-66
2021/09/02 11:42:48;;;;;;;13.17;9.57;;;;;;;;;;5033392;28;20520;-66
2021/09/02 11:45:21;;;;;;;4.97;4.03;;;;;;;;;;5047662;28;20438;-66
2021/09/02 11:47:50;;;;;;;6.57;4.47;;;;;;;;;;5043360;28;20478;-66
2021/09/02 11:50:17;;;;;;;5.53;3.70;;;;;;;;;;5051322;28;20410;-67
2021/09/02 11:52:44;;;;;;;5.60;3.73;;;;;;;;;;5043394;28;20836;-67
2021/09/02 11:55:14;;;;;;;7.47;3.80;;;;;;;;;;5051888;28;20448;-67
2021/09/02 11:57:41;;;;;;;6.73;4.53;;;;;;;;;;5045483;28;20430;-67
2021/09/02 12:00:07;;;;;;;5.00;3.67;;;;;;;;;;5049651;28;20517;-67
2021/09/02 12:02:33;;;;;;;4.67;3.43;;;;;;;;;;5051055;28;20453;-67
2021/09/02 12:04:59;;;;;;;6.17;4.03;;;;;;;;;;5050965;28;20463;-67
2021/09/02 12:07:25;;;;;;;6.03;4.17;;;;;;;;;;5049930;28;20511;-66
2021/09/02 12:09:53;;;;;;;6.33;3.77;;;;;;;;;;5048689;28;20422;-66
2021/09/02 12:12:32;;;;;;;4.87;3.50;;;;;;;;;;5031276;28;20456;-66
2021/09/02 12:14:58;;;;;;;6.00;4.30;;;;;;;;;;5047923;28;20516;-66
2021/09/02 12:17:35;;;;;;;5.80;4.53;;;;;;;;;;5048809;28;20869;-66
2021/09/02 12:20:02;;;;;;;5.90;4.27;;;;;;;;;;5049273;28;20429;-66
2021/09/02 12:22:33;;;;;;;6.30;3.87;;;;;;;;;;5045364;28;20840;-66
2021/09/02 12:25:18;;;;;;;5.70;3.90;;;;;;;;;;5049339;28;20430;-66
2021/09/02 12:27:51;;;;;;;5.20;4.13;;;;;;;;;;5049717;28;20965;-66
2021/09/02 12:30:18;;;;;;;5.30;3.57;;;;;;;;;;5050536;28;20453;-67
2021/09/02 12:32:44;;;;;;;5.60;4.30;;;;;;;;;;5032891;28;20438;-66
2021/09/02 12:35:12;;;;;;;5.17;3.57;;;;;;;;;;5048477;28;20426;-66
2021/09/02 12:37:38;;;;;;;4.50;3.90;;;;;;;;;;5046710;28;20434;-66
2021/09/02 12:40:13;;;;;;;6.13;4.37;;;;;;;;;;5048374;28;21190;-66
2021/09/02 12:42:39;;;;;;;5.80;3.20;;;;;;;;;;5052418;28;20421;-66
2021/09/02 12:45:05;;;;;;;4.13;3.20;;;;;;;;;;5051539;28;20441;-66
2021/09/02 12:47:31;;;;;;;7.37;4.30;;;;;;;;;;5044859;28;20460;-66
2021/09/02 12:49:57;;;;;;;6.60;4.10;;;;;;;;;;5044991;28;20454;-66
2021/09/02 12:52:23;;;;;;;5.90;3.57;;;;;;;;;;5050519;28;20467;-66
2021/09/02 12:55:07;;;;;;;4.93;3.80;;;;;;;;;;5048274;28;20457;-66
2021/09/02 12:57:35;;;;;;;5.20;3.73;;;;;;;;;;5051899;28;20410;-66
2021/09/02 13:00:02;;;;;;;6.10;4.17;;;;;;;;;;5051388;28;20504;-66
2021/09/02 13:02:28;;;;;;;4.77;3.63;;;;;;;;;;5048545;28;20425;-65
2021/09/02 13:04:54;;;;;;;5.30;3.63;;;;;;;;;;5048860;28;20479;-65
2021/09/02 13:07:20;;;;;;;8.83;3.87;;;;;;;;;;5051557;28;20449;-65
2021/09/02 13:09:46;;;;;;;5.73;3.57;;;;;;;;;;5051003;28;20918;-67
2021/09/02 13:12:12;;;;;;;6.10;3.60;;;;;;;;;;5049669;28;20444;-66
2021/09/02 13:14:38;;;;;;;4.37;3.30;;;;;;;;;;5048725;28;20426;-66
2021/09/02 13:17:04;;;;;;;6.50;3.30;;;;;;;;;;5050720;28;20421;-67
2021/09/02 13:19:30;;;;;;;5.40;3.53;;;;;;;;;;5049271;28;20487;-67
2021/09/02 13:21:56;;;;;;;6.73;3.83;;;;;;;;;;5049628;28;20433;-67
2021/09/02 13:24:22;;;;;;;4.73;3.83;;;;;;;;;;5049368;28;20436;-67
2021/09/02 13:26:48;;;;;;;4.40;2.97;;;;;;;;;;5031608;28;20838;-67
2021/09/02 13:29:14;;;;;;;5.40;3.83;;;;;;;;;;5049237;28;20410;-67
2021/09/02 13:31:40;;;;;;;5.03;3.70;;;;;;;;;;5050397;28;20959;-67
2021/09/02 13:34:06;;;;;;;4.80;3.33;;;;;;;;;;5046259;28;20525;-66
2021/09/02 13:36:32;;;;;;;4.80;3.10;;;;;;;;;;5048329;28;20461;-65
2021/09/02 13:38:58;;;;;;;5.10;3.90;;;;;;;;;;5048928;28;20430;-67
2021/09/02 13:41:25;;;;;;;4.83;3.27;;;;;;;;;;5050650;28;20433;-65
2021/09/02 13:43:51;;;;;;;4.33;3.50;;;;;;;;;;5049543;28;20854;-67
2021/09/02 13:46:17;;;;;;;5.20;3.57;;;;;;;;;;5049676;28;20422;-66
2021/09/02 13:48:43;;;;;;;4.90;3.23;;;;;;;;;;5049673;28;20426;-66
2021/09/02 13:51:11;;;;;;;4.37;3.40;;;;;;;;;;5049077;28;20874;-67
2021/09/02 13:53:37;;;;;;;4.53;3.00;;;;;;;;;;5049072;28;20449;-65
2021/09/02 13:56:03;;;;;;;4.17;3.03;;;;;;;;;;5048290;28;20417;-66
2021/09/02 13:58:29;;;;;;;6.63;3.37;;;;;;;;;;5050682;28;20483;-67
2021/09/02 14:01:00;;;;;;;5.60;3.63;;;;;;;;;;5047530;28;20433;-65
2021/09/02 14:03:26;;;;;;;4.03;3.10;;;;;;;;;;5055642;28;20436;-65
2021/09/02 14:05:52;;;;;;;4.20;3.00;;;;;;;;;;5053739;28;20425;-65
2021/09/02 14:08:18;;;;;;;5.10;3.87;;;;;;;;;;5058288;28;20481;-65
2021/09/02 14:10:44;;;;;;;4.80;3.60;;;;;;;;;;5044645;28;20951;-66
2021/09/02 14:13:11;;;;;;;4.07;3.17;;;;;;;;;;5044561;28;20462;-65
2021/09/02 14:15:37;;;;;;;5.37;4.17;;;;;;;;;;5052190;28;20421;-65
2021/09/02 14:18:03;;;;;;;6.40;4.20;;;;;;;;;;5053431;28;20845;-66
2021/09/02 14:20:29;;;;;;;5.03;3.73;;;;;;;;;;5046545;28;20438;-66
2021/09/02 14:22:55;;;;;;;5.90;4.10;;;;;;;;;;5050191;28;20453;-65
2021/09/02 14:25:21;;;;;;;6.00;4.27;;;;;;;;;;5050573;28;20436;-65
2021/09/02 14:27:48;;;;;;;5.20;3.53;;;;;;;;;;5049769;28;21096;-67
2021/09/02 14:30:15;;;;;;;4.90;3.60;;;;;;;;;;5050958;28;20483;-67
2021/09/02 14:32:41;;;;;;;6.07;3.93;;;;;;;;;;5053871;28;20429;-67
2021/09/02 14:35:07;;;;;;;6.70;4.20;;;;;;;;;;5051531;28;20429;-67